createdAt,value
2018-10-09T00:00:09.856Z,8.70
2018-10-09T00:02:39.048Z,8.70
2018-10-09T00:05:08.392Z,8.60
2018-10-09T00:07:38.783Z,8.60
2018-10-09T00:10:08.243Z,8.70
2018-10-09T00:12:37.421Z,8.70
2018-10-09T00:15:07.193Z,8.70
2018-10-09T00:17:36.603Z,8.70
2018-10-09T00:20:06.211Z,8.60
2018-10-09T00:22:35.706Z,8.60
2018-10-09T00:25:06.521Z,8.50
2018-10-09T00:27:35.750Z,8.50
2018-10-09T00:30:04.926Z,8.50
2018-10-09T00:32:34.035Z,8.40
2018-10-09T00:35:03.385Z,8.30
2018-10-09T00:37:34.363Z,8.20
2018-10-09T00:40:03.766Z,8.20
2018-10-09T00:42:33.023Z,8.30
2018-10-09T00:45:02.496Z,8.30
2018-10-09T00:47:33.871Z,8.30
2018-10-09T00:50:03.390Z,8.30
2018-10-09T00:52:32.564Z,8.30
2018-10-09T00:55:02.071Z,8.20
2018-10-09T00:57:31.610Z,8.20
2018-10-09T01:00:01.006Z,8.10
2018-10-09T01:02:31.262Z,8.10
2018-10-09T01:05:00.723Z,8.00
2018-10-09T01:07:30.210Z,8.00
2018-10-09T01:09:59.826Z,7.90
2018-10-09T01:12:28.924Z,7.90
2018-10-09T01:14:58.340Z,7.80
2018-10-09T01:17:28.754Z,7.80
2018-10-09T01:19:57.817Z,7.80
2018-10-09T01:22:27.097Z,7.80
2018-10-09T01:24:56.247Z,7.80
2018-10-09T01:27:25.549Z,7.80
2018-10-09T01:29:54.927Z,7.80
2018-10-09T01:32:24.909Z,7.80
2018-10-09T01:34:54.114Z,7.80
2018-10-09T01:37:23.626Z,7.80
2018-10-09T01:39:53.123Z,7.80
2018-10-09T01:42:22.176Z,7.90
2018-10-09T01:44:51.190Z,7.80
2018-10-09T01:47:20.358Z,7.90
2018-10-09T01:49:49.825Z,7.90
2018-10-09T01:52:18.907Z,7.80
2018-10-09T01:54:48.090Z,7.80
2018-10-09T01:57:17.794Z,7.70
2018-10-09T01:59:47.016Z,7.70
2018-10-09T02:02:16.836Z,7.70
2018-10-09T02:04:45.996Z,7.70
2018-10-09T02:07:15.080Z,7.60
2018-10-09T02:09:44.455Z,7.60
2018-10-09T02:12:14.426Z,7.50
2018-10-09T02:14:43.563Z,7.40
2018-10-09T02:17:12.825Z,7.40
2018-10-09T02:19:41.925Z,7.40
2018-10-09T02:22:10.978Z,7.40
2018-10-09T02:24:40.187Z,7.30
2018-10-09T02:27:09.378Z,7.30
2018-10-09T02:29:38.569Z,7.30
2018-10-09T02:32:07.517Z,7.30
2018-10-09T02:34:36.569Z,7.30
2018-10-09T02:37:05.996Z,7.40
2018-10-09T02:39:35.192Z,7.50
2018-10-09T02:42:04.371Z,7.50
2018-10-09T02:44:33.506Z,7.50
2018-10-09T02:47:03.997Z,7.40
2018-10-09T02:49:33.284Z,7.40
2018-10-09T02:52:02.363Z,7.30
2018-10-09T02:54:31.527Z,7.30
2018-10-09T02:57:00.776Z,7.30
2018-10-09T02:59:29.888Z,7.20
2018-10-09T03:02:01.156Z,7.10
2018-10-09T03:04:30.861Z,7.10
2018-10-09T03:07:00.038Z,7.10
2018-10-09T03:09:29.397Z,7.10
2018-10-09T03:11:58.733Z,7.10
2018-10-09T03:14:28.136Z,7.20
2018-10-09T03:16:57.198Z,7.20
2018-10-09T03:19:26.218Z,7.20
2018-10-09T03:21:55.592Z,7.20
2018-10-09T03:24:25.165Z,7.10
2018-10-09T03:26:54.193Z,7.10
2018-10-09T03:29:23.285Z,7.00
2018-10-09T03:31:52.367Z,7.00
2018-10-09T03:34:21.272Z,6.90
2018-10-09T03:36:50.317Z,6.90
2018-10-09T03:39:20.178Z,6.90
2018-10-09T03:41:49.285Z,6.80
2018-10-09T03:44:19.004Z,6.80
2018-10-09T03:46:48.049Z,6.80
2018-10-09T03:49:17.358Z,6.80
2018-10-09T03:51:47.465Z,6.80
2018-10-09T03:54:16.605Z,6.80
2018-10-09T03:56:45.924Z,6.80
2018-10-09T03:59:15.153Z,6.80
2018-10-09T04:01:44.136Z,6.70
2018-10-09T04:04:13.100Z,6.70
2018-10-09T04:06:42.700Z,6.60
2018-10-09T04:09:14.068Z,6.60
2018-10-09T04:11:43.675Z,6.60
2018-10-09T04:14:13.266Z,6.50
2018-10-09T04:16:42.517Z,6.50
2018-10-09T04:19:12.929Z,6.50
2018-10-09T04:21:41.925Z,6.50
2018-10-09T04:24:10.970Z,6.40
2018-10-09T04:26:40.135Z,6.40
2018-10-09T04:29:09.126Z,6.30
2018-10-09T04:31:41.025Z,6.30
2018-10-09T04:34:13.901Z,6.30
2018-10-09T04:36:43.986Z,6.30
2018-10-09T04:39:16.434Z,6.30
2018-10-09T04:41:46.541Z,6.30
2018-10-09T04:44:15.713Z,6.40
2018-10-09T04:46:46.659Z,6.40
2018-10-09T04:49:15.821Z,6.40
2018-10-09T04:51:47.715Z,6.40
2018-10-09T04:54:17.622Z,6.50
2018-10-09T04:56:49.380Z,6.50
2018-10-09T04:59:18.655Z,6.50
2018-10-09T05:01:47.835Z,6.50
2018-10-09T05:04:17.394Z,6.60
2018-10-09T05:06:46.764Z,6.70
2018-10-09T05:09:15.999Z,6.80
2018-10-09T05:11:45.288Z,6.80
2018-10-09T05:14:14.683Z,6.90
2018-10-09T05:16:44.009Z,7.00
2018-10-09T05:19:13.248Z,7.00
2018-10-09T05:21:42.257Z,7.10
2018-10-09T05:24:14.088Z,7.10
2018-10-09T05:26:44.505Z,7.20
2018-10-09T05:29:13.661Z,7.20
2018-10-09T05:31:42.740Z,7.30
2018-10-09T05:34:11.818Z,7.30
2018-10-09T05:36:41.202Z,7.30
2018-10-09T05:39:10.491Z,7.30
2018-10-09T05:41:39.551Z,7.30
2018-10-09T05:44:08.666Z,7.20
2018-10-09T05:46:37.722Z,7.30
2018-10-09T05:49:06.961Z,7.30
2018-10-09T05:51:36.461Z,7.30
2018-10-09T05:54:05.521Z,7.40
2018-10-09T05:56:34.546Z,7.30
2018-10-09T05:59:03.806Z,7.30
2018-10-09T06:01:32.796Z,7.40
2018-10-09T06:04:02.124Z,7.40
2018-10-09T06:06:31.239Z,7.50
2018-10-09T06:09:00.243Z,7.50
2018-10-09T06:11:29.415Z,7.50
2018-10-09T06:13:58.742Z,7.60
2018-10-09T06:16:27.934Z,7.70
2018-10-09T06:18:57.068Z,7.80
2018-10-09T06:21:26.412Z,7.90
2018-10-09T06:23:55.482Z,8.00
2018-10-09T06:26:24.740Z,8.10
2018-10-09T06:28:53.950Z,8.20
2018-10-09T06:31:23.543Z,8.30
2018-10-09T06:33:52.883Z,8.40
2018-10-09T06:36:22.002Z,8.60
2018-10-09T06:38:51.396Z,8.80
2018-10-09T06:41:20.435Z,8.90
2018-10-09T06:43:49.404Z,9.00
2018-10-09T06:46:19.660Z,9.10
2018-10-09T06:48:49.684Z,9.20
2018-10-09T06:51:18.730Z,9.30
2018-10-09T06:53:48.969Z,9.40
2018-10-09T06:56:18.054Z,9.60
2018-10-09T06:58:47.246Z,9.80
2018-10-09T07:01:16.535Z,9.90
2018-10-09T07:03:45.789Z,10.00
2018-10-09T07:06:15.273Z,10.10
2018-10-09T07:08:44.616Z,10.20
2018-10-09T07:11:14.176Z,10.50
2018-10-09T07:13:44.272Z,10.80
2018-10-09T07:16:14.721Z,11.10
2018-10-09T07:18:43.914Z,11.60
2018-10-09T07:21:12.984Z,12.20
2018-10-09T07:23:42.501Z,12.80
2018-10-09T07:26:11.810Z,13.40
2018-10-09T07:28:41.109Z,13.90
2018-10-09T07:31:10.476Z,14.30
2018-10-09T07:33:39.801Z,14.60
2018-10-09T07:36:08.930Z,15.00
2018-10-09T07:38:38.359Z,15.40
2018-10-09T07:41:07.775Z,15.70
2018-10-09T07:43:37.045Z,15.90
2018-10-09T07:46:06.228Z,16.10
2018-10-09T07:48:35.193Z,16.40
2018-10-09T07:51:04.280Z,17.10
2018-10-09T07:53:33.403Z,18.10
2018-10-09T07:56:02.448Z,18.80
2018-10-09T07:58:31.698Z,19.30
2018-10-09T08:01:00.904Z,19.40
2018-10-09T08:03:30.344Z,19.60
2018-10-09T08:05:59.614Z,19.80
2018-10-09T08:08:29.015Z,20.30
2018-10-09T08:10:58.274Z,20.90
2018-10-09T08:13:27.386Z,21.60
2018-10-09T08:15:56.739Z,22.30
2018-10-09T08:18:25.891Z,22.80
2018-10-09T08:20:55.089Z,23.00
2018-10-09T08:23:24.342Z,22.90
2018-10-09T08:25:53.361Z,23.20
2018-10-09T08:28:23.274Z,23.80
2018-10-09T08:30:52.646Z,24.70
2018-10-09T08:33:22.282Z,25.20
2018-10-09T08:35:51.721Z,24.80
2018-10-09T08:38:22.187Z,24.30
2018-10-09T08:40:51.608Z,23.80
2018-10-09T08:43:20.717Z,23.30
2018-10-09T08:45:50.880Z,22.90
2018-10-09T08:48:20.176Z,22.50
2018-10-09T08:50:51.886Z,22.30
2018-10-09T08:53:21.334Z,22.00
2018-10-09T08:55:50.521Z,21.70
2018-10-09T08:58:19.975Z,21.40
2018-10-09T09:00:49.384Z,21.10
2018-10-09T09:03:19.458Z,20.90
2018-10-09T09:05:48.855Z,21.00
2018-10-09T09:08:18.556Z,20.90
2018-10-09T09:10:47.712Z,21.00
2018-10-09T09:13:16.817Z,21.10
2018-10-09T09:15:46.058Z,21.40
2018-10-09T09:18:17.075Z,21.50
2018-10-09T09:20:46.440Z,21.80
2018-10-09T09:23:16.512Z,22.20
2018-10-09T09:25:48.820Z,22.60
2018-10-09T09:28:18.194Z,22.90
2018-10-09T09:30:47.756Z,23.40
2018-10-09T09:33:17.499Z,24.10
2018-10-09T09:35:46.776Z,24.90
2018-10-09T09:38:16.106Z,25.00
2018-10-09T09:40:45.457Z,24.80
2018-10-09T09:43:15.845Z,25.20
2018-10-09T09:45:45.829Z,25.30
2018-10-09T09:48:16.617Z,25.40
2018-10-09T09:50:46.455Z,25.40
2018-10-09T09:53:16.459Z,25.60
2018-10-09T09:55:47.104Z,25.70
2018-10-09T09:58:17.219Z,25.90
2018-10-09T10:00:51.897Z,26.10
2018-10-09T10:03:21.311Z,26.30
2018-10-09T10:05:50.412Z,26.40
2018-10-09T10:08:19.742Z,26.60
2018-10-09T10:10:49.076Z,26.60
2018-10-09T10:13:18.444Z,26.50
2018-10-09T10:15:47.726Z,25.90
2018-10-09T10:18:16.936Z,25.30
2018-10-09T10:20:46.314Z,25.20
2018-10-09T10:23:15.677Z,25.70
2018-10-09T10:25:44.943Z,26.50
2018-10-09T10:28:14.453Z,27.00
2018-10-09T10:30:43.739Z,27.20
2018-10-09T10:33:13.598Z,27.30
2018-10-09T10:35:43.208Z,27.50
2018-10-09T10:38:12.443Z,27.90
2018-10-09T10:40:41.655Z,28.10
2018-10-09T10:43:10.751Z,27.50
2018-10-09T10:45:40.045Z,27.60
2018-10-09T10:48:09.116Z,27.80
2018-10-09T10:50:38.329Z,28.00
2018-10-09T10:53:07.745Z,28.00
2018-10-09T10:55:37.146Z,27.70
2018-10-09T10:58:06.803Z,27.50
2018-10-09T11:00:36.136Z,27.90
2018-10-09T11:03:05.990Z,28.40
2018-10-09T11:05:35.614Z,28.90
2018-10-09T11:08:05.092Z,29.70
2018-10-09T11:10:34.304Z,30.30
2018-10-09T11:13:03.748Z,30.60
2018-10-09T11:15:33.712Z,30.40
2018-10-09T11:18:03.013Z,29.90
2018-10-09T11:20:32.162Z,30.10
2018-10-09T11:23:01.286Z,30.50
2018-10-09T11:25:30.655Z,30.60
2018-10-09T11:28:00.087Z,30.20
2018-10-09T11:30:29.651Z,30.00
2018-10-09T11:32:58.941Z,30.30
2018-10-09T11:35:28.345Z,30.60
2018-10-09T11:37:57.761Z,30.60
2018-10-09T11:40:27.154Z,30.70
2018-10-09T11:42:56.745Z,30.80
2018-10-09T11:45:26.486Z,30.60
2018-10-09T11:47:56.052Z,30.40
2018-10-09T11:50:25.409Z,30.10
2018-10-09T11:52:54.917Z,29.80
2018-10-09T11:55:24.344Z,29.50
2018-10-09T11:57:54.444Z,29.50
2018-10-09T12:00:24.211Z,29.40
2018-10-09T12:02:53.849Z,29.50
2018-10-09T12:05:23.422Z,29.50
2018-10-09T12:07:53.525Z,29.60
2018-10-09T12:10:23.124Z,29.70
2018-10-09T12:12:52.853Z,29.80
2018-10-09T12:15:22.872Z,29.70
2018-10-09T12:17:52.451Z,29.70
2018-10-09T12:20:22.036Z,29.60
2018-10-09T12:22:51.627Z,29.20
2018-10-09T12:25:21.393Z,29.00
2018-10-09T12:27:50.922Z,29.10
2018-10-09T12:30:20.521Z,29.00
2018-10-09T12:32:49.826Z,28.90
2018-10-09T12:35:19.602Z,28.90
2018-10-09T12:37:49.116Z,28.90
2018-10-09T12:40:18.467Z,28.80
2018-10-09T12:42:48.050Z,28.60
2018-10-09T12:45:17.496Z,28.30
2018-10-09T12:47:49.487Z,28.20
2018-10-09T12:50:19.473Z,28.10
2018-10-09T12:52:48.953Z,28.10
2018-10-09T12:55:18.470Z,28.10
2018-10-09T12:57:48.142Z,28.00
2018-10-09T13:00:17.666Z,27.90
2018-10-09T13:02:47.343Z,27.50
2018-10-09T13:05:16.873Z,27.30
2018-10-09T13:07:46.437Z,27.20
2018-10-09T13:10:15.779Z,26.90
2018-10-09T13:12:45.132Z,26.40
2018-10-09T13:15:14.560Z,26.00
2018-10-09T13:17:43.918Z,25.80
2018-10-09T13:20:13.247Z,25.40
2018-10-09T13:22:42.717Z,25.20
2018-10-09T13:25:12.037Z,25.40
2018-10-09T13:27:41.585Z,25.40
2018-10-09T13:30:11.183Z,25.50
2018-10-09T13:32:40.706Z,25.60
2018-10-09T13:35:10.235Z,25.60
2018-10-09T13:37:39.773Z,25.50
2018-10-09T13:40:11.924Z,25.40
2018-10-09T13:42:41.703Z,25.10
2018-10-09T13:45:11.003Z,24.80
2018-10-09T13:47:40.857Z,24.40
2018-10-09T13:50:10.152Z,24.20
2018-10-09T13:52:39.703Z,24.00
2018-10-09T13:55:09.285Z,24.00
2018-10-09T13:57:38.892Z,24.10
2018-10-09T14:00:08.780Z,24.30
2018-10-09T14:02:38.413Z,24.30
2018-10-09T14:05:08.077Z,24.40
2018-10-09T14:07:37.517Z,24.30
2018-10-09T14:10:08.140Z,24.30
2018-10-09T14:12:37.356Z,24.40
2018-10-09T14:15:06.557Z,24.40
2018-10-09T14:17:36.653Z,24.30
2018-10-09T14:20:05.995Z,24.20
2018-10-09T14:22:35.378Z,24.10
2018-10-09T14:25:05.057Z,24.10
2018-10-09T14:27:34.556Z,24.00
2018-10-09T14:30:03.934Z,24.10
2018-10-09T14:32:33.063Z,24.00
2018-10-09T14:35:02.669Z,24.00
2018-10-09T14:37:31.993Z,23.90
2018-10-09T14:40:01.508Z,23.80
2018-10-09T14:42:30.750Z,23.60
2018-10-09T14:45:01.219Z,23.40
2018-10-09T14:47:30.543Z,23.10
2018-10-09T14:50:03.003Z,22.90
2018-10-09T14:52:32.312Z,22.80
2018-10-09T14:55:02.171Z,22.80
2018-10-09T14:57:31.522Z,22.70
2018-10-09T15:00:03.449Z,22.70
2018-10-09T15:02:32.841Z,22.70
2018-10-09T15:05:02.197Z,22.60
2018-10-09T15:07:31.525Z,22.60
2018-10-09T15:10:00.971Z,22.50
2018-10-09T15:12:30.238Z,22.40
2018-10-09T15:14:59.748Z,22.40
2018-10-09T15:17:28.967Z,22.30
2018-10-09T15:19:58.417Z,22.30
2018-10-09T15:22:27.840Z,22.30
2018-10-09T15:24:57.311Z,22.10
2018-10-09T15:27:26.802Z,22.00
2018-10-09T15:29:56.070Z,21.90
2018-10-09T15:32:25.256Z,21.70
2018-10-09T15:34:54.656Z,21.60
2018-10-09T15:37:24.059Z,21.40
2018-10-09T15:39:53.366Z,21.30
2018-10-09T15:42:22.801Z,21.20
2018-10-09T15:44:53.670Z,21.00
2018-10-09T15:47:23.135Z,20.90
2018-10-09T15:49:52.319Z,20.80
2018-10-09T15:52:21.626Z,20.60
2018-10-09T15:54:50.755Z,20.50
2018-10-09T15:57:20.231Z,20.40
2018-10-09T15:59:49.862Z,20.30
2018-10-09T16:02:18.973Z,20.10
2018-10-09T16:04:48.192Z,20.00
2018-10-09T16:07:17.276Z,19.80
2018-10-09T16:09:46.538Z,19.70
2018-10-09T16:12:15.955Z,19.60
2018-10-09T16:14:45.360Z,19.50
2018-10-09T16:17:14.647Z,19.30
2018-10-09T16:19:44.528Z,19.20
2018-10-09T16:22:13.885Z,19.10
2018-10-09T16:24:43.277Z,18.90
2018-10-09T16:27:12.637Z,18.80
2018-10-09T16:29:41.992Z,18.70
2018-10-09T16:32:11.558Z,18.60
2018-10-09T16:34:40.919Z,18.40
2018-10-09T16:37:10.360Z,18.30
2018-10-09T16:39:39.628Z,18.20
2018-10-09T16:42:09.006Z,18.00
2018-10-09T16:44:38.376Z,18.00
2018-10-09T16:47:07.793Z,17.80
2018-10-09T16:49:38.302Z,17.70
2018-10-09T16:52:07.998Z,17.60
2018-10-09T16:54:37.156Z,17.50
2018-10-09T16:57:06.364Z,17.40
2018-10-09T16:59:35.544Z,17.20
2018-10-09T17:02:04.971Z,17.10
2018-10-09T17:04:34.441Z,17.00
2018-10-09T17:07:03.824Z,16.90
2018-10-09T17:09:32.929Z,16.80
2018-10-09T17:12:02.150Z,16.70
2018-10-09T17:14:31.442Z,16.60
2018-10-09T17:17:00.742Z,16.60
2018-10-09T17:19:29.979Z,16.50
2018-10-09T17:21:59.917Z,16.40
2018-10-09T17:24:29.257Z,16.30
2018-10-09T17:26:59.277Z,16.10
2018-10-09T17:29:28.646Z,15.90
2018-10-09T17:31:58.003Z,15.70
2018-10-09T17:34:27.339Z,15.60
2018-10-09T17:36:57.009Z,15.40
2018-10-09T17:39:26.340Z,15.30
2018-10-09T17:41:55.634Z,15.20
2018-10-09T17:44:24.862Z,15.10
2018-10-09T17:46:54.081Z,15.00
2018-10-09T17:49:23.120Z,14.80
2018-10-09T17:51:52.335Z,14.70
2018-10-09T17:54:21.691Z,14.70
2018-10-09T17:56:51.173Z,14.50
2018-10-09T17:59:20.727Z,14.40
2018-10-09T18:01:50.688Z,14.30
2018-10-09T18:04:20.054Z,14.30
2018-10-09T18:06:49.430Z,14.20
2018-10-09T18:09:18.920Z,14.20
2018-10-09T18:11:48.347Z,14.10
2018-10-09T18:14:18.360Z,14.00
2018-10-09T18:16:47.919Z,14.00
2018-10-09T18:19:17.379Z,13.90
2018-10-09T18:21:46.399Z,13.80
2018-10-09T18:24:15.418Z,13.70
2018-10-09T18:26:44.869Z,13.60
2018-10-09T18:29:13.927Z,13.40
2018-10-09T18:31:42.976Z,13.30
2018-10-09T18:34:12.063Z,13.20
2018-10-09T18:36:41.168Z,13.20
2018-10-09T18:39:12.715Z,13.10
2018-10-09T18:41:46.561Z,13.10
2018-10-09T18:44:16.182Z,13.10
2018-10-09T18:46:45.367Z,13.00
2018-10-09T18:49:14.619Z,13.00
2018-10-09T18:51:43.792Z,12.90
2018-10-09T18:54:12.873Z,12.80
2018-10-09T18:56:42.208Z,12.80
2018-10-09T18:59:11.918Z,12.70
2018-10-09T19:01:40.987Z,12.70
2018-10-09T19:04:10.005Z,12.60
2018-10-09T19:06:39.142Z,12.50
2018-10-09T19:09:10.350Z,12.50
2018-10-09T19:11:39.401Z,12.50
2018-10-09T19:14:08.497Z,12.50
2018-10-09T19:16:37.679Z,12.50
2018-10-09T19:19:07.002Z,12.50
2018-10-09T19:21:36.324Z,12.40
2018-10-09T19:24:05.704Z,12.30
2018-10-09T19:26:35.025Z,12.20
2018-10-09T19:29:11.097Z,12.20
2018-10-09T19:31:40.190Z,12.00
2018-10-09T19:34:09.219Z,12.00
2018-10-09T19:36:38.261Z,11.90
2018-10-09T19:39:10.493Z,11.90
2018-10-09T19:41:39.882Z,11.80
2018-10-09T19:44:09.199Z,11.80
2018-10-09T19:46:38.654Z,11.70
2018-10-09T19:49:08.046Z,11.70
2018-10-09T19:51:37.483Z,11.70
2018-10-09T19:54:06.528Z,11.60
2018-10-09T19:56:36.199Z,11.60
2018-10-09T19:59:05.400Z,11.60
2018-10-09T20:01:34.667Z,11.50
2018-10-09T20:04:03.996Z,11.50
2018-10-09T20:06:33.117Z,11.40
2018-10-09T20:09:02.219Z,11.30
2018-10-09T20:11:31.504Z,11.30
2018-10-09T20:14:00.604Z,11.30
2018-10-09T20:16:29.792Z,11.30
2018-10-09T20:18:59.181Z,11.30
2018-10-09T20:21:28.595Z,11.20
2018-10-09T20:23:57.850Z,11.20
2018-10-09T20:26:27.403Z,11.10
2018-10-09T20:28:56.518Z,11.10
2018-10-09T20:31:25.667Z,11.10
2018-10-09T20:33:54.744Z,11.00
2018-10-09T20:36:23.785Z,11.00
2018-10-09T20:38:53.072Z,10.90
2018-10-09T20:41:22.386Z,10.90
2018-10-09T20:43:52.085Z,10.90
2018-10-09T20:46:21.191Z,10.80
2018-10-09T20:48:50.369Z,10.80
2018-10-09T20:51:19.528Z,10.70
2018-10-09T20:53:48.522Z,10.60
2018-10-09T20:56:17.694Z,10.60
2018-10-09T20:58:47.090Z,10.60
2018-10-09T21:01:16.155Z,10.60
2018-10-09T21:03:45.186Z,10.50
2018-10-09T21:06:14.394Z,10.50
2018-10-09T21:08:43.514Z,10.50
2018-10-09T21:11:13.096Z,10.40
2018-10-09T21:13:42.174Z,10.30
2018-10-09T21:16:11.234Z,10.30
2018-10-09T21:18:40.326Z,10.20
2018-10-09T21:21:12.693Z,10.10
2018-10-09T21:23:42.170Z,10.00
2018-10-09T21:26:11.427Z,9.90
2018-10-09T21:28:40.711Z,9.90
2018-10-09T21:31:10.005Z,9.80
2018-10-09T21:33:39.131Z,9.80
2018-10-09T21:36:08.487Z,9.90
2018-10-09T21:38:37.600Z,9.80
2018-10-09T21:41:07.381Z,9.80
2018-10-09T21:43:36.355Z,9.90
2018-10-09T21:46:05.436Z,9.90
2018-10-09T21:48:34.565Z,9.90
2018-10-09T21:51:03.572Z,10.00
2018-10-09T21:53:32.653Z,10.00
2018-10-09T21:56:01.961Z,10.00
2018-10-09T21:58:31.036Z,10.00
2018-10-09T22:01:05.511Z,10.00
2018-10-09T22:03:34.566Z,9.90
2018-10-09T22:06:03.972Z,9.90
2018-10-09T22:08:33.434Z,9.80
2018-10-09T22:11:02.928Z,9.80
2018-10-09T22:13:32.236Z,9.90
2018-10-09T22:16:01.453Z,9.90
2018-10-09T22:18:30.794Z,9.90
2018-10-09T22:21:00.552Z,10.00
2018-10-09T22:23:30.070Z,10.00
2018-10-09T22:25:59.461Z,10.00
2018-10-09T22:28:28.616Z,10.10
2018-10-09T22:30:59.178Z,10.20
2018-10-09T22:33:28.222Z,10.20
2018-10-09T22:35:57.365Z,10.20
2018-10-09T22:38:26.411Z,10.10
2018-10-09T22:40:55.395Z,10.10
2018-10-09T22:43:24.344Z,10.10
2018-10-09T22:45:53.352Z,10.20
2018-10-09T22:48:22.621Z,10.20
2018-10-09T22:50:51.554Z,10.20
2018-10-09T22:53:20.635Z,10.10
2018-10-09T22:55:50.109Z,10.10
2018-10-09T22:58:19.524Z,10.20
2018-10-09T23:00:49.556Z,10.10
2018-10-09T23:03:19.065Z,10.00
2018-10-09T23:05:48.156Z,10.00
2018-10-09T23:08:17.436Z,10.10
2018-10-09T23:10:46.875Z,10.10
2018-10-09T23:13:15.844Z,10.20
2018-10-09T23:15:44.842Z,10.20
2018-10-09T23:18:13.791Z,10.30
2018-10-09T23:20:42.896Z,10.40
2018-10-09T23:23:12.032Z,10.50
2018-10-09T23:25:41.199Z,10.40
2018-10-09T23:28:10.236Z,10.30
2018-10-09T23:30:39.488Z,10.20
2018-10-09T23:33:08.491Z,10.00
2018-10-09T23:35:37.643Z,9.90
2018-10-09T23:38:06.654Z,9.80
2018-10-09T23:40:35.966Z,9.70
2018-10-09T23:43:05.398Z,9.70
2018-10-09T23:45:34.488Z,9.70
2018-10-09T23:48:09.440Z,9.70
2018-10-09T23:50:41.092Z,9.90
2018-10-09T23:53:10.224Z,9.90
2018-10-09T23:55:39.163Z,10.00
2018-10-09T23:58:08.187Z,10.10
